createdAt,value
2019-05-25T00:01:24.967Z,8.49
2019-05-25T00:03:54.477Z,8.90
2019-05-25T00:06:23.972Z,8.86
2019-05-25T00:08:53.520Z,8.65
2019-05-25T00:11:23.145Z,8.47
2019-05-25T00:13:52.648Z,8.56
2019-05-25T00:16:22.187Z,8.72
2019-05-25T00:18:51.667Z,8.40
2019-05-25T00:21:21.178Z,8.27
2019-05-25T00:24:12.111Z,8.18
2019-05-25T00:26:35.266Z,7.89
2019-05-25T00:29:04.758Z,8.08
2019-05-25T00:31:34.260Z,7.96
2019-05-25T00:34:03.731Z,7.98
2019-05-25T00:36:33.198Z,7.98
2019-05-25T00:39:02.693Z,8.00
2019-05-25T00:41:32.166Z,7.94
2019-05-25T00:44:01.700Z,7.92
2019-05-25T00:46:31.142Z,7.90
2019-05-25T00:49:01.362Z,7.84
2019-05-25T00:51:30.839Z,7.81
2019-05-25T00:54:00.327Z,8.13
2019-05-25T00:56:29.816Z,8.28
2019-05-25T00:58:59.308Z,8.02
2019-05-25T01:01:28.803Z,7.92
2019-05-25T01:03:58.261Z,7.87
2019-05-25T01:06:27.763Z,7.86
2019-05-25T01:08:57.237Z,7.82
2019-05-25T01:11:26.842Z,7.87
2019-05-25T01:13:56.272Z,7.90
2019-05-25T01:16:27.000Z,7.93
2019-05-25T01:18:56.493Z,7.97
2019-05-25T01:21:25.983Z,7.93
2019-05-25T01:23:55.483Z,8.35
2019-05-25T01:26:25.004Z,8.05
2019-05-25T01:28:55.633Z,7.96
2019-05-25T01:31:25.113Z,7.89
2019-05-25T01:33:54.569Z,8.08
2019-05-25T01:36:24.062Z,7.90
2019-05-25T01:38:53.552Z,8.07
2019-05-25T01:41:23.033Z,7.97
2019-05-25T01:43:52.510Z,7.85
2019-05-25T01:46:21.995Z,7.74
2019-05-25T01:48:51.607Z,7.63
2019-05-25T01:51:40.430Z,7.54
2019-05-25T01:54:09.927Z,7.51
2019-05-25T01:56:39.414Z,7.42
2019-05-25T01:59:28.238Z,7.29
2019-05-25T02:01:57.731Z,7.20
2019-05-25T02:04:27.205Z,7.22
2019-05-25T02:06:56.712Z,7.19
2019-05-25T02:09:27.437Z,7.21
2019-05-25T02:11:56.904Z,7.23
2019-05-25T02:14:26.393Z,7.24
2019-05-25T02:16:55.890Z,7.26
2019-05-25T02:19:25.379Z,7.24
2019-05-25T02:21:54.868Z,7.24
2019-05-25T02:24:24.366Z,7.25
2019-05-25T02:26:53.897Z,7.21
2019-05-25T02:29:23.367Z,7.10
2019-05-25T02:31:52.838Z,7.08
2019-05-25T02:34:22.395Z,7.07
2019-05-25T02:36:51.877Z,7.02
2019-05-25T02:39:21.380Z,6.99
2019-05-25T02:41:50.846Z,7.03
2019-05-25T02:44:20.381Z,7.04
2019-05-25T02:46:49.877Z,6.90
2019-05-25T02:49:19.375Z,6.81
2019-05-25T02:51:48.853Z,6.77
2019-05-25T02:54:18.356Z,6.78
2019-05-25T02:56:47.853Z,6.78
2019-05-25T02:59:17.338Z,6.79
2019-05-25T03:01:46.826Z,6.74
2019-05-25T03:04:16.892Z,6.72
2019-05-25T03:06:46.658Z,6.67
2019-05-25T03:09:18.300Z,6.66
2019-05-25T03:11:49.393Z,6.66
2019-05-25T03:14:19.820Z,6.56
2019-05-25T03:16:49.321Z,6.60
2019-05-25T03:19:18.834Z,6.83
2019-05-25T03:24:56.097Z,5.82
2019-05-25T03:27:25.600Z,6.46
2019-05-25T03:29:55.060Z,6.44
2019-05-25T03:32:24.549Z,6.46
2019-05-25T03:34:54.040Z,6.45
2019-05-25T03:37:23.536Z,6.41
2019-05-25T03:39:53.037Z,6.33
2019-05-25T03:42:22.510Z,6.37
2019-05-25T03:44:52.056Z,6.42
2019-05-25T03:47:21.545Z,6.55
2019-05-25T03:49:51.028Z,6.38
2019-05-25T03:52:20.492Z,6.38
2019-05-25T03:54:49.978Z,6.42
2019-05-25T03:57:19.473Z,6.40
2019-05-25T03:59:48.950Z,6.38
2019-05-25T04:02:18.451Z,6.43
2019-05-25T04:04:47.928Z,6.46
2019-05-25T04:07:17.414Z,6.48
2019-05-25T04:09:46.894Z,6.59
2019-05-25T04:12:16.399Z,6.61
2019-05-25T04:14:45.893Z,6.62
2019-05-25T04:17:15.389Z,6.66
2019-05-25T04:19:44.878Z,6.77
2019-05-25T04:22:14.350Z,6.94
2019-05-25T04:24:43.849Z,7.14
2019-05-25T04:27:13.321Z,7.29
2019-05-25T04:29:44.089Z,7.54
2019-05-25T04:32:13.596Z,7.75
2019-05-25T04:34:43.074Z,8.20
2019-05-25T04:37:12.564Z,8.54
2019-05-25T04:39:42.061Z,8.54
2019-05-25T04:42:12.614Z,8.68
2019-05-25T04:44:42.103Z,9.07
2019-05-25T04:47:26.080Z,9.34
2019-05-25T04:49:42.800Z,9.56
2019-05-25T04:52:12.341Z,9.88
2019-05-25T04:54:41.835Z,10.29
2019-05-25T04:57:11.357Z,10.85
2019-05-25T04:59:40.841Z,11.68
2019-05-25T05:02:10.322Z,12.08
2019-05-25T05:04:39.828Z,12.97
2019-05-25T05:07:09.950Z,13.95
2019-05-25T05:09:39.437Z,13.59
2019-05-25T05:12:08.942Z,15.36
2019-05-25T05:14:38.433Z,14.33
2019-05-25T05:17:07.937Z,14.12
2019-05-25T05:19:38.238Z,13.94
2019-05-25T05:22:07.721Z,13.58
2019-05-25T05:24:37.234Z,14.19
2019-05-25T05:27:06.725Z,14.22
2019-05-25T05:29:55.547Z,13.37
2019-05-25T05:32:27.885Z,15.44
2019-05-25T05:34:56.325Z,17.08
2019-05-25T05:37:26.624Z,17.74
2019-05-25T05:39:57.302Z,19.71
2019-05-25T05:45:49.079Z,20.59
2019-05-25T05:48:21.190Z,20.63
2019-05-25T05:50:52.966Z,22.06
2019-05-25T05:53:23.966Z,22.60
2019-05-25T05:55:53.473Z,22.81
2019-05-25T05:58:22.998Z,23.47
2019-05-25T06:00:52.475Z,22.99
2019-05-25T06:03:21.934Z,25.12
2019-05-25T06:05:51.421Z,23.42
2019-05-25T06:08:20.907Z,22.09
2019-05-25T06:10:50.418Z,20.92
2019-05-25T06:13:19.936Z,20.95
2019-05-25T06:15:49.430Z,21.89
2019-05-25T06:18:18.924Z,22.75
2019-05-25T06:20:48.428Z,22.95
2019-05-25T06:23:17.984Z,21.36
2019-05-25T06:25:47.480Z,21.82
2019-05-25T06:28:22.098Z,23.17
2019-05-25T06:30:49.427Z,24.06
2019-05-25T06:33:18.940Z,24.75
2019-05-25T06:35:48.426Z,24.57
2019-05-25T06:38:17.942Z,24.53
2019-05-25T06:40:47.507Z,21.70
2019-05-25T06:43:16.999Z,21.61
2019-05-25T06:45:46.499Z,22.04
2019-05-25T06:48:15.989Z,21.75
2019-05-25T06:50:45.466Z,22.71
2019-05-25T06:53:14.958Z,24.04
2019-05-25T06:55:45.118Z,25.23
2019-05-25T06:58:14.663Z,23.54
2019-05-25T07:00:45.213Z,21.87
2019-05-25T07:03:14.684Z,21.22
2019-05-25T07:05:44.242Z,21.88
2019-05-25T07:08:13.781Z,23.46
2019-05-25T07:10:43.275Z,23.91
2019-05-25T07:13:13.064Z,22.62
2019-05-25T07:15:42.558Z,21.84
2019-05-25T07:18:12.034Z,20.68
2019-05-25T07:20:41.593Z,21.29
2019-05-25T07:23:11.073Z,21.65
2019-05-25T07:25:40.561Z,21.65
2019-05-25T07:28:10.078Z,22.34
2019-05-25T07:30:39.715Z,25.21
2019-05-25T07:33:09.268Z,24.77
2019-05-25T07:35:38.749Z,23.90
2019-05-25T07:38:08.241Z,24.58
2019-05-25T07:40:37.731Z,23.10
2019-05-25T07:43:07.239Z,23.25
2019-05-25T07:45:37.809Z,21.73
2019-05-25T07:48:07.287Z,21.68
2019-05-25T07:50:36.779Z,22.05
2019-05-25T07:53:06.264Z,22.91
2019-05-25T07:55:35.781Z,22.64
2019-05-25T07:58:16.700Z,22.15
2019-05-25T08:00:36.636Z,23.43
2019-05-25T08:03:06.131Z,23.61
2019-05-25T08:05:35.665Z,23.35
2019-05-25T08:08:05.634Z,22.04
2019-05-25T08:10:35.238Z,22.33
2019-05-25T08:13:04.743Z,23.77
2019-05-25T08:15:34.287Z,25.64
2019-05-25T08:18:03.780Z,27.14
2019-05-25T08:20:33.245Z,27.23
2019-05-25T08:23:02.732Z,25.59
2019-05-25T08:25:32.222Z,26.26
2019-05-25T08:28:01.713Z,26.69
2019-05-25T08:30:31.205Z,27.99
2019-05-25T08:33:00.685Z,29.81
2019-05-25T08:35:30.234Z,28.70
2019-05-25T08:37:59.725Z,29.02
2019-05-25T08:40:29.213Z,28.66
2019-05-25T08:42:58.691Z,27.38
2019-05-25T08:45:28.192Z,27.32
2019-05-25T08:47:57.701Z,28.66
2019-05-25T08:50:37.852Z,30.67
2019-05-25T08:52:58.492Z,29.63
2019-05-25T08:55:28.129Z,28.41
2019-05-25T08:57:57.653Z,31.07
2019-05-25T09:00:27.193Z,29.93
2019-05-25T09:02:56.661Z,30.24
2019-05-25T09:05:26.171Z,30.05
2019-05-25T09:07:55.687Z,29.28
2019-05-25T09:10:25.297Z,26.76
2019-05-25T09:12:55.374Z,28.11
2019-05-25T09:15:24.964Z,28.30
2019-05-25T09:17:54.465Z,28.03
2019-05-25T09:20:23.960Z,28.68
2019-05-25T09:22:53.439Z,29.08
2019-05-25T09:25:22.941Z,28.43
2019-05-25T09:27:52.409Z,29.10
2019-05-25T09:30:22.625Z,27.59
2019-05-25T09:32:52.188Z,27.34
2019-05-25T09:35:21.661Z,26.79
2019-05-25T09:37:51.132Z,27.11
2019-05-25T09:40:20.865Z,27.04
2019-05-25T09:42:50.506Z,26.46
2019-05-25T09:45:20.223Z,26.28
2019-05-25T09:47:49.705Z,25.40
2019-05-25T09:50:20.056Z,24.94
2019-05-25T09:52:49.553Z,25.39
2019-05-25T09:55:19.241Z,25.77
2019-05-25T09:57:48.734Z,25.17
2019-05-25T10:00:20.288Z,25.74
2019-05-25T10:02:49.881Z,27.30
2019-05-25T10:05:19.636Z,26.48
2019-05-25T10:07:49.132Z,24.20
2019-05-25T10:10:18.948Z,23.11
2019-05-25T10:12:48.429Z,23.74
2019-05-25T10:15:18.089Z,24.07
2019-05-25T10:17:47.566Z,24.80
2019-05-25T10:20:17.482Z,26.69
2019-05-25T10:22:46.972Z,27.03
2019-05-25T10:25:17.493Z,25.57
2019-05-25T10:28:06.331Z,25.68
2019-05-25T10:30:35.979Z,26.63
2019-05-25T10:33:05.553Z,26.09
2019-05-25T10:35:35.049Z,25.97
2019-05-25T10:38:23.877Z,26.23
2019-05-25T10:41:12.697Z,25.00
2019-05-25T10:43:42.213Z,25.38
2019-05-25T10:46:11.704Z,25.31
2019-05-25T10:48:41.184Z,25.11
2019-05-25T10:51:10.677Z,25.51
2019-05-25T10:53:40.158Z,24.83
2019-05-25T10:56:09.652Z,24.47
2019-05-25T10:58:39.121Z,24.15
2019-05-25T11:01:08.621Z,24.61
2019-05-25T11:03:38.107Z,25.34
2019-05-25T11:06:07.681Z,25.11
2019-05-25T11:08:37.166Z,24.39
2019-05-25T11:11:06.619Z,24.28
2019-05-25T11:13:36.110Z,24.27
2019-05-25T11:16:05.678Z,25.68
2019-05-25T11:18:35.235Z,26.14
2019-05-25T11:21:04.729Z,26.14
2019-05-25T11:23:34.223Z,25.65
2019-05-25T11:26:03.713Z,25.57
2019-05-25T11:28:33.204Z,25.32
2019-05-25T11:31:02.812Z,25.76
2019-05-25T11:33:32.317Z,26.95
2019-05-25T11:36:01.877Z,28.83
2019-05-25T11:38:31.358Z,28.88
2019-05-25T11:41:00.863Z,27.77
2019-05-25T11:43:49.690Z,27.53
2019-05-25T11:46:31.747Z,27.57
2019-05-25T11:49:01.270Z,27.56
2019-05-25T11:51:30.783Z,27.67
2019-05-25T11:54:00.278Z,26.72
2019-05-25T11:56:29.782Z,25.95
2019-05-25T11:58:59.269Z,25.21
2019-05-25T12:01:28.761Z,25.45
2019-05-25T12:03:58.251Z,26.20
2019-05-25T12:06:27.745Z,26.32
2019-05-25T12:08:57.237Z,26.34
2019-05-25T12:11:26.710Z,27.10
2019-05-25T12:13:56.223Z,26.91
2019-05-25T12:16:25.704Z,26.72
2019-05-25T12:18:55.209Z,26.10
2019-05-25T12:21:24.705Z,25.24
2019-05-25T12:23:54.211Z,24.67
2019-05-25T12:26:23.702Z,24.75
2019-05-25T12:28:53.187Z,25.67
2019-05-25T12:31:22.694Z,25.32
2019-05-25T12:33:52.175Z,25.08
2019-05-25T12:36:21.641Z,25.22
2019-05-25T12:38:51.142Z,25.23
2019-05-25T12:41:20.701Z,25.11
2019-05-25T12:43:50.252Z,25.01
2019-05-25T12:46:19.749Z,24.27
2019-05-25T12:48:49.245Z,24.16
2019-05-25T12:51:18.750Z,24.02
2019-05-25T12:53:48.251Z,24.12
2019-05-25T12:56:17.771Z,24.18
2019-05-25T12:58:50.016Z,23.65
2019-05-25T13:01:18.549Z,22.87
2019-05-25T13:03:48.058Z,22.92
2019-05-25T13:06:18.336Z,22.83
2019-05-25T13:08:48.000Z,23.86
2019-05-25T13:11:17.506Z,23.19
2019-05-25T13:13:47.024Z,23.09
2019-05-25T13:16:16.526Z,22.29
2019-05-25T13:18:46.007Z,21.98
2019-05-25T13:21:16.237Z,21.64
2019-05-25T13:23:45.728Z,21.98
2019-05-25T13:26:15.214Z,22.01
2019-05-25T13:28:44.710Z,21.75
2019-05-25T13:31:14.213Z,21.51
2019-05-25T13:33:44.505Z,21.09
2019-05-25T13:36:14.013Z,20.66
2019-05-25T13:38:43.500Z,20.40
2019-05-25T13:41:12.985Z,20.22
2019-05-25T13:43:42.491Z,19.98
2019-05-25T13:46:12.819Z,19.81
2019-05-25T13:48:42.394Z,19.50
2019-05-25T13:51:11.899Z,19.33
2019-05-25T13:53:41.388Z,19.01
2019-05-25T13:56:10.891Z,18.79
2019-05-25T13:58:41.119Z,18.73
2019-05-25T14:01:49.048Z,18.45
2019-05-25T14:04:18.573Z,18.42
2019-05-25T14:06:48.096Z,18.29
2019-05-25T14:09:17.575Z,18.11
2019-05-25T14:11:47.068Z,17.69
2019-05-25T14:14:16.573Z,17.21
2019-05-25T14:16:46.079Z,16.70
2019-05-25T14:19:15.589Z,16.31
2019-05-25T14:21:45.101Z,16.15
2019-05-25T14:24:14.606Z,16.17
2019-05-25T14:26:44.098Z,16.39
2019-05-25T14:29:13.588Z,16.50
2019-05-25T14:31:45.931Z,16.82
2019-05-25T14:34:14.310Z,17.18
2019-05-25T14:36:43.801Z,17.03
2019-05-25T14:39:13.729Z,17.21
2019-05-25T14:41:43.281Z,17.52
2019-05-25T14:44:12.773Z,17.54
2019-05-25T14:46:42.943Z,17.78
2019-05-25T14:49:12.611Z,18.03
2019-05-25T14:51:42.101Z,18.40
2019-05-25T14:54:11.611Z,18.19
2019-05-25T14:56:41.086Z,18.32
2019-05-25T14:59:10.587Z,17.49
2019-05-25T15:01:40.106Z,17.12
2019-05-25T15:04:10.260Z,17.23
2019-05-25T15:06:39.729Z,17.85
2019-05-25T15:09:09.305Z,18.02
2019-05-25T15:11:58.144Z,17.61
2019-05-25T15:14:46.990Z,16.97
2019-05-25T15:17:16.484Z,16.59
2019-05-25T15:19:45.960Z,16.46
2019-05-25T15:22:15.534Z,16.49
2019-05-25T15:24:45.004Z,16.68
2019-05-25T15:27:14.515Z,16.56
2019-05-25T15:29:44.004Z,16.54
2019-05-25T15:32:19.958Z,16.54
2019-05-25T15:34:46.558Z,16.58
2019-05-25T15:37:16.137Z,16.59
2019-05-25T15:39:45.635Z,16.61
2019-05-25T15:42:15.131Z,16.78
2019-05-25T15:44:44.615Z,16.92
2019-05-25T15:47:14.117Z,16.82
2019-05-25T15:49:43.596Z,17.20
2019-05-25T15:52:13.164Z,17.10
2019-05-25T15:54:42.719Z,16.87
2019-05-25T15:57:12.194Z,16.94
2019-05-25T15:59:41.706Z,17.01
2019-05-25T16:02:11.542Z,17.15
2019-05-25T16:04:41.024Z,16.86
2019-05-25T16:07:10.522Z,16.80
2019-05-25T16:09:40.012Z,16.74
2019-05-25T16:12:09.500Z,17.03
2019-05-25T16:14:39.015Z,17.22
2019-05-25T16:17:08.497Z,16.84
2019-05-25T16:19:38.003Z,16.56
2019-05-25T16:22:07.502Z,16.35
2019-05-25T16:24:36.985Z,16.21
2019-05-25T16:27:06.494Z,16.22
2019-05-25T16:29:35.969Z,16.18
2019-05-25T16:32:05.555Z,16.24
2019-05-25T16:34:35.031Z,16.36
2019-05-25T16:37:04.742Z,16.36
2019-05-25T16:39:34.246Z,16.31
2019-05-25T16:42:03.830Z,16.19
2019-05-25T16:44:33.393Z,16.23
2019-05-25T16:47:02.902Z,16.01
2019-05-25T16:49:32.411Z,15.86
2019-05-25T16:52:01.903Z,15.98
2019-05-25T16:54:31.476Z,15.89
2019-05-25T16:57:00.987Z,15.90
2019-05-25T16:59:30.481Z,15.70
2019-05-25T17:02:00.019Z,15.67
2019-05-25T17:04:29.504Z,15.67
2019-05-25T17:06:59.011Z,15.60
2019-05-25T17:09:28.509Z,15.62
2019-05-25T17:11:58.001Z,15.38
2019-05-25T17:14:27.512Z,15.53
2019-05-25T17:16:57.013Z,15.41
2019-05-25T17:19:26.533Z,15.59
2019-05-25T17:21:56.039Z,15.68
2019-05-25T17:24:25.514Z,15.90
2019-05-25T17:26:55.044Z,15.94
2019-05-25T17:29:24.534Z,15.93
2019-05-25T17:31:54.015Z,15.82
2019-05-25T17:34:23.513Z,15.88
2019-05-25T17:36:54.253Z,15.63
2019-05-25T17:39:23.743Z,15.65
2019-05-25T17:41:53.240Z,15.82
2019-05-25T17:44:22.798Z,15.94
2019-05-25T17:46:52.299Z,15.79
2019-05-25T17:49:22.918Z,15.85
2019-05-25T17:51:52.391Z,15.56
2019-05-25T17:54:21.893Z,15.43
2019-05-25T17:56:51.377Z,15.66
2019-05-25T17:59:20.879Z,15.75
2019-05-25T18:01:50.424Z,15.78
2019-05-25T18:04:19.919Z,15.67
2019-05-25T18:06:49.392Z,15.77
2019-05-25T18:09:18.900Z,15.49
2019-05-25T18:11:49.159Z,15.28
2019-05-25T18:14:19.407Z,15.09
2019-05-25T18:16:48.877Z,14.98
2019-05-25T18:19:18.380Z,14.92
2019-05-25T18:21:47.868Z,14.72
2019-05-25T18:24:17.455Z,14.70
2019-05-25T18:26:47.748Z,14.49
2019-05-25T18:29:17.226Z,14.37
2019-05-25T18:31:46.724Z,14.50
2019-05-25T18:34:21.944Z,14.51
2019-05-25T18:37:06.791Z,14.15
2019-05-25T18:39:55.639Z,14.17
2019-05-25T18:42:25.181Z,14.22
2019-05-25T18:44:54.666Z,14.29
2019-05-25T18:47:24.165Z,13.98
2019-05-25T18:49:53.859Z,13.88
2019-05-25T18:52:23.397Z,14.09
2019-05-25T18:54:52.867Z,14.04
2019-05-25T18:57:22.364Z,14.06
2019-05-25T18:59:51.877Z,13.95
2019-05-25T19:02:21.357Z,13.90
2019-05-25T19:04:59.541Z,13.79
2019-05-25T19:07:22.121Z,13.59
2019-05-25T19:09:51.655Z,13.66
2019-05-25T19:12:21.161Z,13.52
2019-05-25T19:14:50.658Z,13.56
2019-05-25T19:17:20.220Z,13.59
2019-05-25T19:19:49.713Z,13.54
2019-05-25T19:22:19.204Z,13.64
2019-05-25T19:24:48.714Z,13.54
2019-05-25T19:27:18.234Z,13.62
2019-05-25T19:29:47.717Z,13.51
2019-05-25T19:32:18.154Z,13.44
2019-05-25T19:34:59.006Z,13.45
2019-05-25T19:37:19.584Z,13.51
2019-05-25T19:39:49.183Z,13.44
2019-05-25T19:42:18.693Z,13.24
2019-05-25T19:44:48.193Z,13.35
2019-05-25T19:47:17.704Z,13.36
2019-05-25T19:49:47.179Z,13.36
2019-05-25T19:52:16.664Z,13.29
2019-05-25T19:54:46.160Z,13.41
2019-05-25T19:57:15.654Z,13.21
2019-05-25T19:59:45.143Z,13.16
2019-05-25T20:02:14.673Z,13.11
2019-05-25T20:04:44.162Z,13.09
2019-05-25T20:07:13.657Z,13.06
2019-05-25T20:09:43.159Z,13.04
2019-05-25T20:12:12.656Z,12.98
2019-05-25T20:14:42.168Z,12.87
2019-05-25T20:17:11.678Z,12.85
2019-05-25T20:19:41.196Z,12.86
2019-05-25T20:22:11.228Z,12.83
2019-05-25T20:24:40.778Z,12.77
2019-05-25T20:27:10.251Z,12.79
2019-05-25T20:29:39.745Z,12.78
2019-05-25T20:32:09.263Z,12.70
2019-05-25T20:34:39.575Z,12.80
2019-05-25T20:37:09.063Z,12.77
2019-05-25T20:39:38.567Z,12.77
2019-05-25T20:42:08.074Z,12.81
2019-05-25T20:44:37.566Z,12.64
2019-05-25T20:47:08.095Z,12.71
2019-05-25T20:49:37.586Z,12.77
2019-05-25T20:52:07.131Z,12.66
2019-05-25T20:54:36.646Z,12.67
2019-05-25T20:57:06.234Z,12.57
2019-05-25T20:59:36.478Z,12.63
2019-05-25T21:02:06.154Z,12.70
2019-05-25T21:04:35.656Z,12.57
2019-05-25T21:07:05.201Z,12.72
2019-05-25T21:09:34.722Z,12.69
2019-05-25T21:12:04.872Z,12.69
2019-05-25T21:14:34.351Z,12.69
2019-05-25T21:17:03.919Z,12.61
2019-05-25T21:19:33.413Z,12.77
2019-05-25T21:22:02.995Z,12.80
2019-05-25T21:24:32.499Z,12.86
2019-05-25T21:27:02.033Z,12.84
2019-05-25T21:29:31.505Z,12.79
2019-05-25T21:32:01.014Z,12.60
2019-05-25T21:34:30.591Z,12.78
2019-05-25T21:37:01.342Z,12.66
2019-05-25T21:39:30.861Z,12.74
2019-05-25T21:42:00.363Z,12.56
2019-05-25T21:44:29.870Z,12.57
2019-05-25T21:46:59.360Z,12.60
2019-05-25T21:49:30.128Z,12.64
2019-05-25T21:51:59.719Z,12.64
2019-05-25T21:54:29.220Z,12.61
2019-05-25T21:56:58.703Z,12.54
2019-05-25T21:59:28.217Z,12.51
2019-05-25T22:01:58.976Z,12.62
2019-05-25T22:04:28.449Z,12.67
2019-05-25T22:06:58.013Z,12.66
2019-05-25T22:09:27.519Z,12.66
2019-05-25T22:11:57.021Z,12.54
2019-05-25T22:14:27.752Z,12.55
2019-05-25T22:16:57.266Z,12.54
2019-05-25T22:19:26.783Z,12.50
2019-05-25T22:21:56.283Z,12.42
2019-05-25T22:24:57.542Z,12.50
2019-05-25T22:27:27.055Z,12.48
2019-05-25T22:29:56.548Z,12.30
2019-05-25T22:32:26.034Z,12.36
2019-05-25T22:34:55.844Z,12.21
2019-05-25T22:37:25.335Z,12.38
2019-05-25T22:39:54.841Z,12.53
2019-05-25T22:42:43.668Z,12.44
2019-05-25T22:45:13.512Z,12.41
2019-05-25T22:47:43.018Z,12.31
2019-05-25T22:50:13.046Z,12.44
2019-05-25T22:52:42.555Z,12.49
2019-05-25T22:55:12.381Z,12.16
2019-05-25T22:57:41.873Z,12.19
2019-05-25T23:00:11.748Z,12.40
2019-05-25T23:02:41.218Z,12.32
2019-05-25T23:05:11.125Z,12.29
2019-05-25T23:07:40.621Z,12.18
2019-05-25T23:10:10.637Z,12.17
2019-05-25T23:12:40.126Z,12.16
2019-05-25T23:15:10.059Z,12.07
2019-05-25T23:17:39.843Z,12.19
2019-05-25T23:20:09.834Z,12.14
2019-05-25T23:22:39.391Z,12.24
2019-05-25T23:25:09.133Z,12.06
2019-05-25T23:27:38.628Z,11.95
2019-05-25T23:30:08.959Z,11.84
2019-05-25T23:32:38.528Z,11.86
2019-05-25T23:35:08.342Z,11.82
2019-05-25T23:37:37.916Z,11.76
2019-05-25T23:40:08.811Z,11.79
2019-05-25T23:42:38.317Z,11.83
2019-05-25T23:45:08.260Z,11.94
2019-05-25T23:47:37.749Z,12.24
2019-05-25T23:50:08.162Z,12.34
2019-05-25T23:52:37.650Z,12.30
2019-05-25T23:55:10.497Z,12.40
2019-05-25T23:57:59.321Z,12.45
